createdAt,value
2018-03-07T05:27:09.028Z,39.89
2018-03-07T05:28:18.516Z,40
2018-03-07T05:29:28.041Z,39.81
2018-03-07T05:30:37.527Z,39.81
2018-03-07T05:31:47.116Z,39.81
2018-03-07T05:32:56.335Z,40
2018-03-07T05:34:06.135Z,39.81
2018-03-07T05:35:15.862Z,39.23
2018-03-07T05:36:25.652Z,39.04
2018-03-07T05:37:35.405Z,39.62
2018-03-07T05:38:44.887Z,38.95
2018-03-07T05:39:53.837Z,39.04
2018-03-07T05:41:03.325Z,38.95
2018-03-07T05:42:12.546Z,38.95
2018-03-07T05:43:22.321Z,38.96
2018-03-07T05:44:32.080Z,38.47
2018-03-07T05:45:41.574Z,38.87
2018-03-07T05:46:51.330Z,39.06
2018-03-07T05:48:01.085Z,38.29
2018-03-07T05:49:10.322Z,38.29
2018-03-07T05:50:19.277Z,38.01
2018-03-07T05:51:29.034Z,37.72
2018-03-07T05:52:38.790Z,37.91
2018-03-07T05:53:48.280Z,37.82
2018-03-07T05:54:57.766Z,38.1
2018-03-07T05:56:07.279Z,38.01
2018-03-07T05:57:16.980Z,37.82
2018-03-07T05:58:26.465Z,38.01
2018-03-07T05:59:37.575Z,38.01
2018-03-07T06:00:46.808Z,38.22
2018-03-07T06:01:56.298Z,38.39
2018-03-07T06:03:05.805Z,37.84
2018-03-07T06:04:15.296Z,37.64
2018-03-07T06:05:24.793Z,37.55
2018-03-07T06:06:34.287Z,37.55
2018-03-07T06:07:43.783Z,37.55
2018-03-07T06:08:52.740Z,37.45
2018-03-07T06:10:01.971Z,37.26
2018-03-07T06:11:12.012Z,37.45
2018-03-07T06:12:20.965Z,37.16
2018-03-07T06:13:30.453Z,36.97
2018-03-07T06:14:39.676Z,36.99
2018-03-07T06:15:49.167Z,37.35
2018-03-07T06:16:57.858Z,36.97
2018-03-07T06:18:07.351Z,36.99
2018-03-07T06:19:16.839Z,37.08
2018-03-07T06:20:26.908Z,37.18
2018-03-07T06:21:36.478Z,36.99
2018-03-07T06:22:45.967Z,36.9
2018-03-07T06:23:54.922Z,36.99
2018-03-07T06:25:04.150Z,36.99
2018-03-07T06:26:13.923Z,36.9
2018-03-07T06:27:23.683Z,36.8
2018-03-07T06:28:33.447Z,36.8
2018-03-07T06:29:42.941Z,36.8
2018-03-07T06:30:52.435Z,36.9
2018-03-07T06:32:01.925Z,36.9
2018-03-07T06:33:11.688Z,36.8
2018-03-07T06:34:21.454Z,36.6
2018-03-07T06:35:30.940Z,36.7
2018-03-07T06:36:40.434Z,36.41
2018-03-07T06:37:49.657Z,36.41
2018-03-07T06:38:59.146Z,36.13
2018-03-07T06:40:08.906Z,36.6
2018-03-07T06:41:18.125Z,36.6
2018-03-07T06:42:27.351Z,36.7
2018-03-07T06:43:37.385Z,36.41
2018-03-07T06:44:46.886Z,36.6
2018-03-07T06:45:56.653Z,36.6
2018-03-07T06:47:06.676Z,36.6
2018-03-07T06:48:16.437Z,36.6
2018-03-07T06:49:25.926Z,36.6
2018-03-07T06:50:35.686Z,36.6
2018-03-07T06:51:44.909Z,36.22
2018-03-07T06:52:54.403Z,36.33
2018-03-07T06:54:03.627Z,36.32
2018-03-07T06:55:13.386Z,36.24
2018-03-07T06:56:22.885Z,36.32
2018-03-07T06:57:32.431Z,35.95
2018-03-07T06:58:42.237Z,36.13
2018-03-07T06:59:51.851Z,36.15
2018-03-07T07:01:01.346Z,36.15
2018-03-07T07:02:10.571Z,36.05
2018-03-07T07:03:19.792Z,36.03
2018-03-07T07:04:29.022Z,35.83
2018-03-07T07:05:37.981Z,36.05
2018-03-07T07:06:47.486Z,35.85
2018-03-07T07:07:56.983Z,36.32
2018-03-07T07:09:06.750Z,35.93
2018-03-07T07:10:15.980Z,35.66
2018-03-07T07:11:25.744Z,36.24
2018-03-07T07:12:35.267Z,35.95
2018-03-07T07:13:44.490Z,35.95
2018-03-07T07:14:54.507Z,36.05
2018-03-07T07:16:04.269Z,35.95
2018-03-07T07:17:13.499Z,36.15
2018-03-07T07:18:22.457Z,35.95
2018-03-07T07:19:31.953Z,36.15
2018-03-07T07:20:41.712Z,36.24
2018-03-07T07:21:51.474Z,36.24
2018-03-07T07:23:01.235Z,35.95
2018-03-07T07:24:10.994Z,36.15
2018-03-07T07:25:20.216Z,36.05
2018-03-07T07:26:29.718Z,36.05
2018-03-07T07:27:39.481Z,36.15
2018-03-07T07:28:49.246Z,36.15
2018-03-07T07:29:58.729Z,35.95
2018-03-07T07:31:08.215Z,36.05
2018-03-07T07:32:18.241Z,36.15
2018-03-07T07:33:27.462Z,35.95
2018-03-07T07:34:37.226Z,36.05
2018-03-07T07:35:46.710Z,35.85
2018-03-07T07:36:55.929Z,35.95
2018-03-07T07:38:05.421Z,36.05
2018-03-07T07:39:14.648Z,36.05
2018-03-07T07:40:24.420Z,36.05
2018-03-07T07:41:33.646Z,36.05
2018-03-07T07:42:43.410Z,35.95
2018-03-07T07:43:52.913Z,35.95
2018-03-07T07:45:02.413Z,35.95
2018-03-07T07:46:11.916Z,36.05
2018-03-07T07:47:21.146Z,35.95
2018-03-07T07:48:30.365Z,36.05
2018-03-07T07:49:39.856Z,35.85
2018-03-07T07:50:49.352Z,36.15
2018-03-07T07:51:59.127Z,35.95
2018-03-07T07:53:08.629Z,35.95
2018-03-07T07:54:18.123Z,35.95
2018-03-07T07:55:27.885Z,35.95
2018-03-07T07:56:37.417Z,36.15
2018-03-07T07:57:46.639Z,35.85
2018-03-07T07:58:56.404Z,36.05
2018-03-07T08:00:05.628Z,36.05
2018-03-07T08:01:14.856Z,35.76
2018-03-07T08:02:23.806Z,35.76
2018-03-07T08:03:33.029Z,35.85
2018-03-07T08:04:42.258Z,35.95
2018-03-07T08:05:51.746Z,35.95
2018-03-07T08:07:01.625Z,36.05
2018-03-07T08:08:10.848Z,36.05
2018-03-07T08:09:20.072Z,36.15
2018-03-07T08:10:29.673Z,36.33
2018-03-07T08:11:39.443Z,36.05
2018-03-07T08:12:49.197Z,35.95
2018-03-07T08:13:58.958Z,36.15
2018-03-07T08:15:08.997Z,36.43
2018-03-07T08:16:18.760Z,36.43
2018-03-07T08:17:28.250Z,36.53
2018-03-07T08:18:38.283Z,36.62
2018-03-07T08:19:47.515Z,36.43
2018-03-07T08:20:57.283Z,36.62
2018-03-07T08:22:06.778Z,36.62
2018-03-07T08:23:15.999Z,36.62
2018-03-07T08:24:25.230Z,36.33
2018-03-07T08:25:35.260Z,36.72
2018-03-07T08:26:44.750Z,36.62
2018-03-07T08:27:54.242Z,36.72
2018-03-07T08:29:03.731Z,36.53
2018-03-07T08:30:13.230Z,36.82
2018-03-07T08:31:22.456Z,36.72
2018-03-07T08:32:31.949Z,36.53
2018-03-07T08:33:41.176Z,36.53
2018-03-07T08:34:50.937Z,36.33
2018-03-07T08:36:00.418Z,36.43
2018-03-07T08:37:09.902Z,37.2
2018-03-07T08:38:19.673Z,37.39
2018-03-07T08:39:28.896Z,37.49
2018-03-07T08:40:38.656Z,38.07
2018-03-07T08:41:48.695Z,37.97
2018-03-07T08:42:58.454Z,38.64
2018-03-07T08:44:08.216Z,38.74
2018-03-07T08:45:17.977Z,38.84
2018-03-07T08:46:27.199Z,38.64
2018-03-07T08:47:36.428Z,38.93
2018-03-07T08:48:45.913Z,38.64
2018-03-07T08:49:55.400Z,38.45
2018-03-07T08:51:04.899Z,38.54
2018-03-07T08:52:14.399Z,38.54
2018-03-07T08:53:23.896Z,38.64
2018-03-07T08:54:33.119Z,38.35
2018-03-07T08:55:42.611Z,38.35
2018-03-07T08:56:52.108Z,38.16
2018-03-07T08:58:01.332Z,38.16
2018-03-07T08:59:10.556Z,38.07
2018-03-07T09:00:20.313Z,38.35
2018-03-07T09:01:30.119Z,38.45
2018-03-07T09:02:39.887Z,38.45
2018-03-07T09:03:49.393Z,38.16
2018-03-07T09:04:58.617Z,37.49
2018-03-07T09:06:08.110Z,37.49
2018-03-07T09:07:17.597Z,37.49
2018-03-07T09:08:27.092Z,37.49
2018-03-07T09:09:36.585Z,37.3
2018-03-07T09:10:46.086Z,37.3
2018-03-07T09:11:55.853Z,37.39
2018-03-07T09:13:05.351Z,37.3
2018-03-07T09:14:14.576Z,37.59
2018-03-07T09:15:23.529Z,37.47
2018-03-07T09:16:33.355Z,37.59
2018-03-07T09:17:42.580Z,37.59
2018-03-07T09:18:51.801Z,37.3
2018-03-07T09:20:00.756Z,37.49
2018-03-07T09:21:09.712Z,37.3
2018-03-07T09:22:18.937Z,37.39
2018-03-07T09:23:28.696Z,37.49
2018-03-07T09:24:37.920Z,37.49
2018-03-07T09:25:46.872Z,37.3
2018-03-07T09:26:56.899Z,37.2
2018-03-07T09:28:06.658Z,36.82
2018-03-07T09:29:16.413Z,36.9
2018-03-07T09:30:25.648Z,36.9
2018-03-07T09:31:35.142Z,36.32
2018-03-07T09:32:44.638Z,36.22
2018-03-07T09:33:54.137Z,36.51
2018-03-07T09:35:03.382Z,36.51
2018-03-07T09:36:13.434Z,36.51
2018-03-07T09:37:22.928Z,36.41
2018-03-07T09:38:32.422Z,36.51
2018-03-07T09:39:41.649Z,36.32
2018-03-07T09:40:51.412Z,36.51
2018-03-07T09:42:01.489Z,36.51
2018-03-07T09:43:10.179Z,36.6
2018-03-07T09:44:19.946Z,36.62
2018-03-07T09:45:29.445Z,36.6
2018-03-07T09:46:38.936Z,36.8
2018-03-07T09:47:48.168Z,36.72
2018-03-07T09:48:57.654Z,36.7
2018-03-07T09:50:07.418Z,36.7
2018-03-07T09:51:17.174Z,36.7
2018-03-07T09:52:26.394Z,36.51
2018-03-07T09:53:35.612Z,36.62
2018-03-07T09:54:44.844Z,36.6
2018-03-07T09:55:54.870Z,36.53
2018-03-07T09:57:04.904Z,36.6
2018-03-07T09:58:14.402Z,36.43
2018-03-07T09:59:23.902Z,36.8
2018-03-07T10:00:33.666Z,36.51
2018-03-07T10:01:43.696Z,36.41
2018-03-07T10:02:53.453Z,36.32
2018-03-07T10:04:02.945Z,36.33
2018-03-07T10:05:12.448Z,36.53
2018-03-07T10:06:21.939Z,36.7
2018-03-07T10:07:31.434Z,36.7
2018-03-07T10:08:41.197Z,36.62
2018-03-07T10:09:51.230Z,36.22
2018-03-07T10:11:01.257Z,36.72
2018-03-07T10:12:10.482Z,36.7
2018-03-07T10:13:20.240Z,36.7
2018-03-07T10:14:29.733Z,36.7
2018-03-07T10:15:39.258Z,36.53
2018-03-07T10:16:49.012Z,36.43
2018-03-07T10:17:58.507Z,36.6
2018-03-07T10:19:08.262Z,36.43
2018-03-07T10:20:18.027Z,36.43
2018-03-07T10:21:27.523Z,36.51
2018-03-07T10:22:37.289Z,36.6
2018-03-07T10:23:46.792Z,36.62
2018-03-07T10:24:56.345Z,36.72
2018-03-07T10:26:05.836Z,36.33
2018-03-07T10:27:15.603Z,36.72
2018-03-07T10:28:25.103Z,36.24
2018-03-07T10:29:34.323Z,36.33
2018-03-07T10:30:43.810Z,36.43
2018-03-07T10:31:53.575Z,36.43
2018-03-07T10:33:02.565Z,36.43
2018-03-07T10:34:12.316Z,36.43
2018-03-07T10:35:22.262Z,36.33
2018-03-07T10:36:32.033Z,36.43
2018-03-07T10:37:41.259Z,36.43
2018-03-07T10:38:50.218Z,35.95
2018-03-07T10:39:59.706Z,36.24
2018-03-07T10:41:08.928Z,36.22
2018-03-07T10:42:18.682Z,35.95
2018-03-07T10:43:28.442Z,36.15
2018-03-07T10:44:37.669Z,36.15
2018-03-07T10:45:46.899Z,36.15
2018-03-07T10:46:56.669Z,36.15
2018-03-07T10:48:06.160Z,36.15
2018-03-07T10:49:15.701Z,36.05
2018-03-07T10:50:25.464Z,35.85
2018-03-07T10:51:34.961Z,36.15
2018-03-07T10:52:43.921Z,36.15
2018-03-07T10:53:52.876Z,35.95
2018-03-07T10:55:02.368Z,36.24
2018-03-07T10:56:11.589Z,36.05
2018-03-07T10:57:21.083Z,36.13
2018-03-07T10:58:30.575Z,36.15
2018-03-07T10:59:39.804Z,36.15
2018-03-07T11:00:49.568Z,35.95
2018-03-07T11:01:59.326Z,35.95
2018-03-07T11:03:09.355Z,35.76
2018-03-07T11:04:18.889Z,35.95
2018-03-07T11:05:28.076Z,35.85
2018-03-07T11:06:37.566Z,35.85
2018-03-07T11:07:46.790Z,35.85
2018-03-07T11:08:56.015Z,36.05
2018-03-07T11:10:05.773Z,36.05
2018-03-07T11:11:15.804Z,36.15
2018-03-07T11:12:25.568Z,36.05
2018-03-07T11:13:35.325Z,36.05
2018-03-07T11:14:44.818Z,36.24
2018-03-07T11:15:54.580Z,36.24
2018-03-07T11:17:04.080Z,36.24
2018-03-07T11:18:13.592Z,36.24
2018-03-07T11:19:22.816Z,36.15
2018-03-07T11:20:32.308Z,35.95
2018-03-07T11:21:42.135Z,35.95
2018-03-07T11:22:51.629Z,35.95
2018-03-07T11:24:01.391Z,35.95
2018-03-07T11:25:10.884Z,35.95
2018-03-07T11:26:20.650Z,35.95
2018-03-07T11:27:30.426Z,35.95
2018-03-07T11:28:40.016Z,35.95
2018-03-07T11:29:49.770Z,36.05
2018-03-07T11:30:59.259Z,36.15
2018-03-07T11:32:08.481Z,36.15
2018-03-07T11:33:17.971Z,36.15
2018-03-07T11:34:27.273Z,35.85
2018-03-07T11:35:36.974Z,35.76
2018-03-07T11:36:46.469Z,35.95
2018-03-07T11:37:55.963Z,35.95
2018-03-07T11:39:05.180Z,35.95
2018-03-07T11:40:14.940Z,35.95
2018-03-07T11:41:24.965Z,36.05
2018-03-07T11:42:33.929Z,35.85
2018-03-07T11:43:43.691Z,35.76
2018-03-07T11:44:53.726Z,35.95
2018-03-07T11:46:02.411Z,35.95
2018-03-07T11:47:11.906Z,35.95
2018-03-07T11:48:21.661Z,35.57
2018-03-07T11:49:30.893Z,35.57
2018-03-07T11:50:40.122Z,35.76
2018-03-07T11:51:49.082Z,35.47
2018-03-07T11:52:58.308Z,35.95
2018-03-07T11:54:07.556Z,35.85
2018-03-07T11:55:17.584Z,35.76
2018-03-07T11:56:27.342Z,35.66
2018-03-07T11:57:36.303Z,35.95
2018-03-07T11:58:45.804Z,35.66
2018-03-07T11:59:54.487Z,35.66
2018-03-07T12:01:03.975Z,35.57
2018-03-07T12:02:14.000Z,35.57
2018-03-07T12:03:23.759Z,36.05
2018-03-07T12:04:33.805Z,35.76
2018-03-07T12:05:43.300Z,35.85
2018-03-07T12:06:53.069Z,35.76
2018-03-07T12:08:03.117Z,35.76
2018-03-07T12:09:12.876Z,35.57
2018-03-07T12:10:22.631Z,35.95
2018-03-07T12:11:31.855Z,35.85
2018-03-07T12:12:41.125Z,35.85
2018-03-07T12:13:50.889Z,35.85
2018-03-07T12:15:00.111Z,35.57
2018-03-07T12:16:09.340Z,35.85
2018-03-07T12:17:18.297Z,35.95
2018-03-07T12:18:28.058Z,35.76
2018-03-07T12:19:37.829Z,35.66
2018-03-07T12:20:47.319Z,35.95
2018-03-07T12:21:57.079Z,35.57
2018-03-07T12:23:06.031Z,35.66
2018-03-07T12:24:15.251Z,35.47
2018-03-07T12:25:25.020Z,35.47
2018-03-07T12:26:34.754Z,35.47
2018-03-07T12:27:43.713Z,35.47
2018-03-07T12:28:52.941Z,35.57
2018-03-07T12:30:02.169Z,35.57
2018-03-07T12:31:12.197Z,35.47
2018-03-07T12:32:21.692Z,35.66
2018-03-07T12:33:30.918Z,35.57
2018-03-07T12:34:40.138Z,35.66
2018-03-07T12:35:49.092Z,35.57
2018-03-07T12:36:58.850Z,35.57
2018-03-07T12:38:08.345Z,35.66
2018-03-07T12:39:17.833Z,35.66
2018-03-07T12:40:27.055Z,35.47
2018-03-07T12:41:36.815Z,35.47
2018-03-07T12:42:46.881Z,35.57
2018-03-07T12:43:56.648Z,35.66
2018-03-07T12:45:06.680Z,35.66
2018-03-07T12:46:16.712Z,35.66
2018-03-07T12:47:26.213Z,35.57
2018-03-07T12:48:35.982Z,35.57
2018-03-07T12:49:46.017Z,35.57
2018-03-07T12:50:55.238Z,35.57
2018-03-07T12:52:05.003Z,35.76
2018-03-07T12:53:14.780Z,35.76
2018-03-07T12:54:24.278Z,35.76
2018-03-07T12:55:33.506Z,35.66
2018-03-07T12:56:43.270Z,35.76
2018-03-07T12:57:52.493Z,35.66
2018-03-07T12:59:01.985Z,35.66
2018-03-07T13:00:11.743Z,35.66
2018-03-07T13:01:20.972Z,35.66
2018-03-07T13:02:30.469Z,35.76
2018-03-07T13:03:40.251Z,35.76
2018-03-07T13:04:49.474Z,35.66
2018-03-07T13:05:58.699Z,35.57
2018-03-07T13:07:08.463Z,35.66
2018-03-07T13:08:18.230Z,35.47
2018-03-07T13:09:27.728Z,35.66
2018-03-07T13:10:37.223Z,35.66
2018-03-07T13:11:46.989Z,35.66
2018-03-07T13:12:57.013Z,35.76
2018-03-07T13:14:06.616Z,35.76
2018-03-07T13:15:16.116Z,35.76
2018-03-07T13:16:25.970Z,35.66
2018-03-07T13:17:35.487Z,35.57
2018-03-07T13:18:45.261Z,35.47
2018-03-07T13:19:54.758Z,35.57
2018-03-07T13:21:04.519Z,35.66
2018-03-07T13:22:14.284Z,35.57
2018-03-07T13:23:24.051Z,35.66
2018-03-07T13:24:33.543Z,35.66
2018-03-07T13:25:43.039Z,35.66
2018-03-07T13:26:52.810Z,35.66
2018-03-07T13:28:02.034Z,35.95
2018-03-07T13:29:11.533Z,36.15
2018-03-07T13:30:21.031Z,35.95
2018-03-07T13:31:30.533Z,35.76
2018-03-07T13:32:40.295Z,35.66
2018-03-07T13:33:49.253Z,35.76
2018-03-07T13:34:58.737Z,35.76
2018-03-07T13:36:08.235Z,35.76
2018-03-07T13:37:17.730Z,35.76
2018-03-07T13:38:27.492Z,35.66
2018-03-07T13:39:37.260Z,35.57
2018-03-07T13:40:47.022Z,35.57
2018-03-07T13:41:56.791Z,35.47
2018-03-07T13:43:06.285Z,35.28
2018-03-07T13:44:16.048Z,35.66
2018-03-07T13:45:25.006Z,35.66
2018-03-07T13:46:34.763Z,35.76
2018-03-07T13:47:44.801Z,35.76
2018-03-07T13:48:54.564Z,35.95
2018-03-07T13:50:04.053Z,36.15
2018-03-07T13:51:13.820Z,36.15
2018-03-07T13:52:23.580Z,35.76
2018-03-07T13:53:32.805Z,36.05
2018-03-07T13:54:42.783Z,36.05
2018-03-07T13:55:52.574Z,36.43
2018-03-07T13:57:02.037Z,36.05
2018-03-07T13:58:11.538Z,36.45
2018-03-07T13:59:21.314Z,36.25
2018-03-07T14:00:31.115Z,36.33
2018-03-07T14:01:40.363Z,36.33
2018-03-07T14:02:49.882Z,36.43
2018-03-07T14:03:58.607Z,36.62
2018-03-07T14:05:07.850Z,36.45
2018-03-07T14:06:17.682Z,36.43
2018-03-07T14:07:27.527Z,36.54
2018-03-07T14:08:37.050Z,36.45
2018-03-07T14:09:46.866Z,36.35
2018-03-07T14:10:56.263Z,36.72
2018-03-07T14:12:05.818Z,36.62
2018-03-07T14:13:15.323Z,36.62
2018-03-07T14:14:24.611Z,36.62
2018-03-07T14:15:34.344Z,36.62
2018-03-07T14:16:43.918Z,36.62
2018-03-07T14:17:53.933Z,36.62
2018-03-07T14:19:03.763Z,36.62
2018-03-07T14:20:13.011Z,36.45
2018-03-07T14:21:22.254Z,36.64
2018-03-07T14:22:31.838Z,36.35
2018-03-07T14:23:41.369Z,36.62
2018-03-07T14:24:50.876Z,36.62
2018-03-07T14:26:00.652Z,36.43
2018-03-07T14:27:10.163Z,36.07
2018-03-07T14:28:51.755Z,35.57
2018-03-07T14:30:01.075Z,35.28
2018-03-07T14:31:10.405Z,35.66
2018-03-07T14:32:19.375Z,35.76
2018-03-07T14:33:28.921Z,35.38
2018-03-07T14:34:38.746Z,35.76
2018-03-07T14:35:48.928Z,35.95
2018-03-07T14:36:58.695Z,35.76
2018-03-07T14:38:08.643Z,36.05
2018-03-07T14:39:18.361Z,36.33
2018-03-07T14:40:28.019Z,36.53
2018-03-07T14:41:37.630Z,36.33
2018-03-07T14:42:47.680Z,36.24
2018-03-07T14:43:56.989Z,36.43
2018-03-07T14:45:06.751Z,36.62
2018-03-07T14:46:15.528Z,36.62
2018-03-07T14:47:25.482Z,36.43
2018-03-07T14:48:34.704Z,36.62
2018-03-07T14:49:44.206Z,36.62
2018-03-07T14:50:53.604Z,36.53
2018-03-07T14:52:03.083Z,36.72
2018-03-07T14:53:12.465Z,36.43
2018-03-07T14:54:22.098Z,36.62
2018-03-07T14:55:31.615Z,36.82
2018-03-07T14:56:41.004Z,36.53
2018-03-07T14:57:50.187Z,36.62
2018-03-07T14:59:00.248Z,36.74
2018-03-07T15:00:10.011Z,36.64
2018-03-07T15:01:19.517Z,36.64
2018-03-07T15:02:28.437Z,36.53
2018-03-07T15:03:37.979Z,36.53
2018-03-07T15:04:47.769Z,36.62
2018-03-07T15:05:57.091Z,36.53
2018-03-07T15:07:06.641Z,36.43
2018-03-07T15:08:15.947Z,36.35
2018-03-07T15:09:26.017Z,36.43
2018-03-07T15:10:35.522Z,36.43
2018-03-07T15:11:45.033Z,36.53
2018-03-07T15:12:54.292Z,36.62
2018-03-07T15:14:04.063Z,36.53
2018-03-07T15:15:13.034Z,36.53
2018-03-07T15:16:22.527Z,36.15
2018-03-07T15:17:31.752Z,36.15
2018-03-07T15:18:41.902Z,35.95
2018-03-07T15:19:51.500Z,36.16
2018-03-07T15:21:00.737Z,35.95
2018-03-07T15:22:10.341Z,35.66
2018-03-07T15:23:19.616Z,35.49
2018-03-07T15:24:29.168Z,35.28
2018-03-07T15:25:38.433Z,35.28
2018-03-07T15:26:47.444Z,35.28
2018-03-07T15:27:56.943Z,35.3
2018-03-07T15:29:06.180Z,35.38
2018-03-07T15:30:15.675Z,34.81
2018-03-07T15:31:25.190Z,34.7
2018-03-07T15:32:34.967Z,34.8
2018-03-07T15:33:44.203Z,34.8
2018-03-07T15:34:53.444Z,34.61
2018-03-07T15:36:02.687Z,34.7
2018-03-07T15:37:12.463Z,34.51
2018-03-07T15:38:22.244Z,34.51
2018-03-07T15:39:31.746Z,34.8
2018-03-07T15:40:41.523Z,35.47
2018-03-07T15:41:50.776Z,35.47
2018-03-07T15:43:00.017Z,35.18
2018-03-07T15:44:09.305Z,35.76
2018-03-07T15:45:19.088Z,35.57
2018-03-07T15:46:28.867Z,35.57
2018-03-07T15:47:38.654Z,35.66
2018-03-07T15:48:48.431Z,35.57
2018-03-07T15:49:57.663Z,35.68
2018-03-07T15:51:06.640Z,35.57
2018-03-07T15:52:15.607Z,35.68
2018-03-07T15:53:24.586Z,35.97
2018-03-07T15:54:34.103Z,35.85
2018-03-07T15:55:43.633Z,35.97
2018-03-07T15:56:52.614Z,36.15
2018-03-07T15:58:02.118Z,36.15
2018-03-07T15:59:11.627Z,36.07
2018-03-07T16:00:21.399Z,35.85
2018-03-07T16:01:30.637Z,35.97
2018-03-07T16:02:39.867Z,35.95
2018-03-07T16:03:49.388Z,36.05
2018-03-07T16:04:58.705Z,36.16
2018-03-07T16:06:08.487Z,35.87
2018-03-07T16:07:18.305Z,35.85
2018-03-07T16:08:27.817Z,36.07
2018-03-07T16:09:37.082Z,36.05
2018-03-07T16:10:46.908Z,36.15
2018-03-07T16:11:56.409Z,36.05
2018-03-07T16:13:06.461Z,36.33
2018-03-07T16:14:15.688Z,36.53
2018-03-07T16:15:24.961Z,36.62
2018-03-07T16:16:34.752Z,36.62
2018-03-07T16:17:44.297Z,36.62
2018-03-07T16:18:54.177Z,36.53
2018-03-07T16:20:03.990Z,36.43
2018-03-07T16:21:13.502Z,36.83
2018-03-07T16:22:22.744Z,37.01
2018-03-07T16:23:32.049Z,37.3
2018-03-07T16:24:41.613Z,37.59
2018-03-07T16:25:51.418Z,37.59
2018-03-07T16:27:01.470Z,38.09
2018-03-07T16:28:10.998Z,37.89
2018-03-07T16:29:20.496Z,38.37
2018-03-07T16:30:30.091Z,38.09
2018-03-07T16:31:39.897Z,37.79
2018-03-07T16:32:49.716Z,38.28
2018-03-07T16:33:58.706Z,38.37
2018-03-07T16:35:08.047Z,38.47
2018-03-07T16:36:17.812Z,38.95
2018-03-07T16:37:27.104Z,38.56
2018-03-07T16:38:36.637Z,39.24
2018-03-07T16:39:46.478Z,38.95
2018-03-07T16:40:55.752Z,38.76
2018-03-07T16:42:04.754Z,38.95
2018-03-07T16:43:13.987Z,38.66
2018-03-07T16:44:24.102Z,38.66
2018-03-07T16:45:33.909Z,38.95
2018-03-07T16:46:43.397Z,38.95
2018-03-07T16:47:53.089Z,38.95
2018-03-07T16:49:02.318Z,38.85
2018-03-07T16:50:11.544Z,39.33
2018-03-07T16:51:20.769Z,38.95
2018-03-07T16:52:29.459Z,39.04
2018-03-07T16:53:38.682Z,38.95
2018-03-07T16:54:48.461Z,39.04
2018-03-07T16:55:57.958Z,39.04
2018-03-07T16:57:07.455Z,39.33
2018-03-07T16:58:17.228Z,39.72
2018-03-07T16:59:26.725Z,40.01
2018-03-07T17:00:36.222Z,40.2
2018-03-07T17:01:45.441Z,39.24
2018-03-07T17:02:55.204Z,39.04
2018-03-07T17:04:04.440Z,38.85
2018-03-07T17:05:14.205Z,38.85
2018-03-07T17:06:23.698Z,38.66
2018-03-07T17:07:33.720Z,38.66
2018-03-07T17:08:43.216Z,38.85
2018-03-07T17:09:52.447Z,39.04
2018-03-07T17:11:02.239Z,39.91
2018-03-07T17:12:12.016Z,39.89
2018-03-07T17:13:21.541Z,40.37
2018-03-07T17:14:31.028Z,40.58
2018-03-07T17:15:40.787Z,40.78
2018-03-07T17:16:50.280Z,40.97
2018-03-07T17:17:59.513Z,41.06
2018-03-07T17:19:09.014Z,41.16
2018-03-07T17:20:18.781Z,40.88
2018-03-07T17:21:28.288Z,41.24
2018-03-07T17:22:38.044Z,41.24
2018-03-07T17:23:47.806Z,41.43
2018-03-07T17:24:57.305Z,41.55
2018-03-07T17:26:06.537Z,41.83
2018-03-07T17:27:16.302Z,41.64
2018-03-07T17:28:26.063Z,41.45
2018-03-07T17:30:07.365Z,41.74
2018-03-07T17:31:16.583Z,42.2
2018-03-07T17:32:26.345Z,42.1
2018-03-07T17:33:36.111Z,42.2
2018-03-07T17:34:45.333Z,42.03
2018-03-07T17:35:54.830Z,42.39
2018-03-07T17:37:04.332Z,42.89
2018-03-07T17:38:14.096Z,42.89
2018-03-07T17:39:23.319Z,42.6
2018-03-07T17:40:32.273Z,42.58
2018-03-07T17:41:41.496Z,42.41
2018-03-07T17:42:51.069Z,42.5
2018-03-07T17:44:00.030Z,42.68
2018-03-07T17:45:09.252Z,42.97
2018-03-07T17:46:19.011Z,43.08
2018-03-07T17:47:28.508Z,42.97
2018-03-07T17:48:38.272Z,42.99
2018-03-07T17:49:48.377Z,42.99
2018-03-07T17:50:58.557Z,42.99
2018-03-07T17:52:08.050Z,42.99
2018-03-07T17:53:17.812Z,42.87
2018-03-07T17:54:27.871Z,43.07
2018-03-07T17:55:37.365Z,42.97
2018-03-07T17:56:46.591Z,43.07
2018-03-07T17:57:55.552Z,43.26
2018-03-07T17:59:05.052Z,43.26
2018-03-07T18:00:14.600Z,43.26
2018-03-07T18:01:24.363Z,43.45
2018-03-07T18:02:33.597Z,43.54
2018-03-07T18:03:43.091Z,43.45
2018-03-07T18:04:52.041Z,43.54
2018-03-07T18:06:00.993Z,43.64
2018-03-07T18:07:10.490Z,43.64
2018-03-07T18:08:19.985Z,43.54
2018-03-07T18:09:28.939Z,43.64
2018-03-07T18:10:37.900Z,43.35
2018-03-07T18:11:47.394Z,43.76
2018-03-07T18:12:56.625Z,43.66
2018-03-07T18:14:06.117Z,43.74
2018-03-07T18:15:15.346Z,43.54
2018-03-07T18:16:24.566Z,43.74
2018-03-07T18:17:33.793Z,43.54
2018-03-07T18:18:43.284Z,43.74
2018-03-07T18:19:52.781Z,43.93
2018-03-07T18:21:02.002Z,43.64
2018-03-07T18:22:10.956Z,43.74
2018-03-07T18:23:20.186Z,43.95
2018-03-07T18:24:29.408Z,43.74
2018-03-07T18:25:38.951Z,43.76
2018-03-07T18:26:48.713Z,43.74
2018-03-07T18:27:58.203Z,43.74
2018-03-07T18:29:07.750Z,43.74
2018-03-07T18:30:17.248Z,43.74
2018-03-07T18:31:26.734Z,43.84
2018-03-07T18:32:35.959Z,43.64
2018-03-07T18:33:44.913Z,44.02
2018-03-07T18:34:54.674Z,43.74
2018-03-07T18:36:04.170Z,43.54
2018-03-07T18:37:13.400Z,43.64
2018-03-07T18:38:23.437Z,43.74
2018-03-07T18:39:32.666Z,43.64
2018-03-07T18:40:41.895Z,43.64
2018-03-07T18:41:51.383Z,44.02
2018-03-07T18:43:00.342Z,43.93
2018-03-07T18:44:09.845Z,43.93
2018-03-07T18:45:19.066Z,44.31
2018-03-07T18:46:28.563Z,43.93
2018-03-07T18:47:38.324Z,44.02
2018-03-07T18:48:47.827Z,44.14
2018-03-07T18:49:57.316Z,44.31
2018-03-07T18:51:06.544Z,44.51
2018-03-07T18:52:15.767Z,44.31
2018-03-07T18:53:24.993Z,44.51
2018-03-07T18:54:34.751Z,44.51
2018-03-07T18:55:43.975Z,44.31
2018-03-07T18:56:53.736Z,44.6
2018-03-07T18:58:03.276Z,44.7
2018-03-07T18:59:13.054Z,44.31
2018-03-07T19:00:22.547Z,44.6
2018-03-07T19:01:31.507Z,44.22
2018-03-07T19:02:41.004Z,44.51
2018-03-07T19:03:50.793Z,44.41
2018-03-07T19:05:00.084Z,44.6
2018-03-07T19:06:09.048Z,44.41
2018-03-07T19:07:18.810Z,44.31
2018-03-07T19:08:28.574Z,44.31
2018-03-07T19:09:38.072Z,44.31
2018-03-07T19:10:47.557Z,44.6
2018-03-07T19:11:57.587Z,44.41
2018-03-07T19:13:07.078Z,44.51
2018-03-07T19:14:16.575Z,44.05
2018-03-07T19:15:26.335Z,44.22
2018-03-07T19:16:36.090Z,44.12
2018-03-07T19:17:46.123Z,44.22
2018-03-07T19:18:55.354Z,44.22
2018-03-07T19:20:04.851Z,44.12
2018-03-07T19:21:14.613Z,44.22
2018-03-07T19:22:24.373Z,44.31
2018-03-07T19:23:33.864Z,44.7
2018-03-07T19:24:43.359Z,44.79
2018-03-07T19:25:52.311Z,44.79
2018-03-07T19:27:01.804Z,44.62
2018-03-07T19:28:11.023Z,44.6
2018-03-07T19:29:20.527Z,44.31
2018-03-07T19:30:29.755Z,43.84
2018-03-07T19:31:39.519Z,43.45
2018-03-07T19:32:49.276Z,43.07
2018-03-07T19:33:58.763Z,43.26
2018-03-07T19:35:08.270Z,43.45
2018-03-07T19:36:18.042Z,43.66
2018-03-07T19:37:28.086Z,43.74
2018-03-07T19:38:37.038Z,43.85
2018-03-07T19:39:46.534Z,43.95
2018-03-07T19:40:55.757Z,44.24
2018-03-07T19:42:04.982Z,44.34
2018-03-07T19:43:14.752Z,44.14
2018-03-07T19:44:24.793Z,44.34
2018-03-07T19:45:34.637Z,43.85
2018-03-07T19:46:43.902Z,43.85
2018-03-07T19:47:53.669Z,43.95
2018-03-07T19:49:02.936Z,44.05
2018-03-07T19:50:12.607Z,43.76
2018-03-07T19:51:22.465Z,43.66
2018-03-07T19:52:31.967Z,43.95
2018-03-07T19:53:41.339Z,44.14
2018-03-07T19:54:51.383Z,44.34
2018-03-07T19:56:00.609Z,44.62
2018-03-07T19:57:09.842Z,44.43
2018-03-07T19:58:19.367Z,44.14
2018-03-07T19:59:28.882Z,44.24
2018-03-07T20:00:38.077Z,44.43
2018-03-07T20:01:47.305Z,44.24
2018-03-07T20:02:57.091Z,44.72
2018-03-07T20:04:06.329Z,44.53
2018-03-07T20:05:15.824Z,44.62
2018-03-07T20:06:25.915Z,44.62
2018-03-07T20:07:35.697Z,45.2
2018-03-07T20:08:44.923Z,44.82
2018-03-07T20:09:54.694Z,45.1
2018-03-07T20:11:04.461Z,45.1
2018-03-07T20:12:13.690Z,45.39
2018-03-07T20:13:23.950Z,45.39
2018-03-07T20:14:33.753Z,45.01
2018-03-07T20:15:43.522Z,45.1
2018-03-07T20:16:53.011Z,45.29
2018-03-07T20:18:01.989Z,45.2
2018-03-07T20:19:11.800Z,45.29
2018-03-07T20:20:20.765Z,45.08
2018-03-07T20:21:30.534Z,45.29
2018-03-07T20:22:40.026Z,45.29
2018-03-07T20:23:49.468Z,45.29
2018-03-07T20:24:58.784Z,45.18
2018-03-07T20:26:08.182Z,45.29